sensor_id;sensor_type;location;lat;lon;timestamp;P1;durP1;ratioP1;P2;durP2;ratioP2
42690;SDS011;28306;55.744;37.578;2022-12-29T00:02:14;2.22;;;1.30;;
42690;SDS011;28306;55.744;37.578;2022-12-29T00:04:41;1.90;;;1.10;;
42690;SDS011;28306;55.744;37.578;2022-12-29T00:07:07;1.95;;;1.05;;
42690;SDS011;28306;55.744;37.578;2022-12-29T00:09:33;2.70;;;1.20;;
42690;SDS011;28306;55.744;37.578;2022-12-29T00:12:00;2.35;;;1.20;;
42690;SDS011;28306;55.744;37.578;2022-12-29T00:14:26;2.40;;;1.40;;
42690;SDS011;28306;55.744;37.578;2022-12-29T00:17:11;2.40;;;1.23;;
42690;SDS011;28306;55.744;37.578;2022-12-29T00:19:37;2.83;;;1.60;;
42690;SDS011;28306;55.744;37.578;2022-12-29T00:22:21;2.58;;;1.70;;
42690;SDS011;28306;55.744;37.578;2022-12-29T00:25:05;2.60;;;1.75;;
42690;SDS011;28306;55.744;37.578;2022-12-29T00:27:34;2.58;;;1.73;;
42690;SDS011;28306;55.744;37.578;2022-12-29T00:30:22;3.50;;;1.90;;
42690;SDS011;28306;55.744;37.578;2022-12-29T00:33:11;2.55;;;1.77;;
42690;SDS011;28306;55.744;37.578;2022-12-29T00:38:35;3.80;;;2.45;;
42690;SDS011;28306;55.744;37.578;2022-12-29T00:41:24;3.72;;;2.30;;
42690;SDS011;28306;55.744;37.578;2022-12-29T00:44:09;2.97;;;1.90;;
42690;SDS011;28306;55.744;37.578;2022-12-29T00:46:37;3.47;;;2.05;;
42690;SDS011;28306;55.744;37.578;2022-12-29T00:49:04;3.60;;;2.30;;
42690;SDS011;28306;55.744;37.578;2022-12-29T00:51:49;3.80;;;2.30;;
42690;SDS011;28306;55.744;37.578;2022-12-29T00:54:15;3.92;;;2.67;;
42690;SDS011;28306;55.744;37.578;2022-12-29T00:56:41;3.95;;;2.60;;
42690;SDS011;28306;55.744;37.578;2022-12-29T00:59:07;3.22;;;2.33;;
42690;SDS011;28306;55.744;37.578;2022-12-29T01:01:35;3.47;;;2.20;;
42690;SDS011;28306;55.744;37.578;2022-12-29T01:04:02;3.42;;;2.10;;
42690;SDS011;28306;55.744;37.578;2022-12-29T01:06:28;3.67;;;2.50;;
42690;SDS011;28306;55.744;37.578;2022-12-29T01:08:54;3.45;;;2.17;;
42690;SDS011;28306;55.744;37.578;2022-12-29T01:11:38;2.63;;;1.80;;
42690;SDS011;28306;55.744;37.578;2022-12-29T01:14:05;3.25;;;2.20;;
42690;SDS011;28306;55.744;37.578;2022-12-29T01:16:31;2.70;;;1.50;;
42690;SDS011;28306;55.744;37.578;2022-12-29T01:18:57;3.05;;;2.00;;
42690;SDS011;28306;55.744;37.578;2022-12-29T01:21:23;3.88;;;1.85;;
42690;SDS011;28306;55.744;37.578;2022-12-29T01:23:50;2.83;;;1.88;;
42690;SDS011;28306;55.744;37.578;2022-12-29T01:26:16;2.92;;;1.83;;
42690;SDS011;28306;55.744;37.578;2022-12-29T01:28:42;2.70;;;1.33;;
42690;SDS011;28306;55.744;37.578;2022-12-29T01:31:09;2.40;;;1.50;;
42690;SDS011;28306;55.744;37.578;2022-12-29T01:33:36;3.00;;;1.80;;
42690;SDS011;28306;55.744;37.578;2022-12-29T01:36:03;3.25;;;1.67;;
42690;SDS011;28306;55.744;37.578;2022-12-29T01:38:30;2.97;;;1.70;;
42690;SDS011;28306;55.744;37.578;2022-12-29T01:40:56;2.97;;;1.63;;
42690;SDS011;28306;55.744;37.578;2022-12-29T01:43:37;2.75;;;1.60;;
42690;SDS011;28306;55.744;37.578;2022-12-29T01:46:52;2.75;;;1.80;;
42690;SDS011;28306;55.744;37.578;2022-12-29T01:51:45;2.60;;;1.50;;
42690;SDS011;28306;55.744;37.578;2022-12-29T01:54:22;2.63;;;1.60;;
42690;SDS011;28306;55.744;37.578;2022-12-29T01:57:04;2.53;;;1.53;;
42690;SDS011;28306;55.744;37.578;2022-12-29T01:59:36;3.00;;;1.50;;
42690;SDS011;28306;55.744;37.578;2022-12-29T02:02:11;2.10;;;1.33;;
42690;SDS011;28306;55.744;37.578;2022-12-29T02:04:39;2.38;;;1.40;;
42690;SDS011;28306;55.744;37.578;2022-12-29T02:07:11;2.83;;;1.70;;
42690;SDS011;28306;55.744;37.578;2022-12-29T02:09:43;2.58;;;1.42;;
42690;SDS011;28306;55.744;37.578;2022-12-29T02:12:11;2.47;;;1.45;;
42690;SDS011;28306;55.744;37.578;2022-12-29T02:14:37;2.70;;;1.42;;
42690;SDS011;28306;55.744;37.578;2022-12-29T02:28:47;1.92;;;1.08;;
42690;SDS011;28306;55.744;37.578;2022-12-29T02:30:57;2.80;;;1.40;;
42690;SDS011;28306;55.744;37.578;2022-12-29T02:36:11;1.63;;;0.90;;
42690;SDS011;28306;55.744;37.578;2022-12-29T02:41:46;1.98;;;1.10;;
42690;SDS011;28306;55.744;37.578;2022-12-29T02:47:16;1.50;;;0.80;;
42690;SDS011;28306;55.744;37.578;2022-12-29T02:49:57;2.78;;;0.88;;
42690;SDS011;28306;55.744;37.578;2022-12-29T02:52:28;1.90;;;0.70;;
42690;SDS011;28306;55.744;37.578;2022-12-29T02:54:59;3.17;;;1.00;;
42690;SDS011;28306;55.744;37.578;2022-12-29T03:02:35;1.13;;;0.60;;
42690;SDS011;28306;55.744;37.578;2022-12-29T03:10:46;1.92;;;0.68;;
42690;SDS011;28306;55.744;37.578;2022-12-29T03:19:34;1.47;;;0.70;;
42690;SDS011;28306;55.744;37.578;2022-12-29T03:22:13;1.50;;;0.70;;
42690;SDS011;28306;55.744;37.578;2022-12-29T03:24:59;1.63;;;0.57;;
42690;SDS011;28306;55.744;37.578;2022-12-29T03:27:31;2.50;;;1.02;;
42690;SDS011;28306;55.744;37.578;2022-12-29T03:30:02;2.78;;;0.70;;
42690;SDS011;28306;55.744;37.578;2022-12-29T03:32:32;2.13;;;0.85;;
42690;SDS011;28306;55.744;37.578;2022-12-29T03:35:02;2.45;;;0.77;;
42690;SDS011;28306;55.744;37.578;2022-12-29T03:37:31;2.25;;;0.88;;
42690;SDS011;28306;55.744;37.578;2022-12-29T03:40:03;2.33;;;1.13;;
42690;SDS011;28306;55.744;37.578;2022-12-29T03:42:30;2.65;;;1.00;;
42690;SDS011;28306;55.744;37.578;2022-12-29T03:44:59;1.92;;;0.70;;
42690;SDS011;28306;55.744;37.578;2022-12-29T03:47:26;1.60;;;0.80;;
42690;SDS011;28306;55.744;37.578;2022-12-29T03:49:52;2.25;;;0.90;;
42690;SDS011;28306;55.744;37.578;2022-12-29T03:52:18;2.60;;;0.90;;
42690;SDS011;28306;55.744;37.578;2022-12-29T03:54:45;2.22;;;0.93;;
42690;SDS011;28306;55.744;37.578;2022-12-29T03:57:12;2.17;;;0.82;;
42690;SDS011;28306;55.744;37.578;2022-12-29T03:59:57;2.17;;;1.08;;
42690;SDS011;28306;55.744;37.578;2022-12-29T04:02:23;1.92;;;0.80;;
42690;SDS011;28306;55.744;37.578;2022-12-29T04:04:49;1.35;;;0.60;;
42690;SDS011;28306;55.744;37.578;2022-12-29T04:07:15;3.20;;;0.90;;
42690;SDS011;28306;55.744;37.578;2022-12-29T04:09:41;2.10;;;0.80;;
42690;SDS011;28306;55.744;37.578;2022-12-29T04:12:10;2.88;;;0.90;;
42690;SDS011;28306;55.744;37.578;2022-12-29T04:14:35;1.75;;;0.63;;
42690;SDS011;28306;55.744;37.578;2022-12-29T04:17:01;1.75;;;0.70;;
42690;SDS011;28306;55.744;37.578;2022-12-29T04:19:28;1.48;;;0.60;;
42690;SDS011;28306;55.744;37.578;2022-12-29T04:21:54;2.35;;;0.80;;
42690;SDS011;28306;55.744;37.578;2022-12-29T04:24:20;1.20;;;0.70;;
42690;SDS011;28306;55.744;37.578;2022-12-29T04:26:48;2.22;;;0.85;;
42690;SDS011;28306;55.744;37.578;2022-12-29T04:29:29;1.52;;;0.70;;
42690;SDS011;28306;55.744;37.578;2022-12-29T04:32:11;3.00;;;0.88;;
42690;SDS011;28306;55.744;37.578;2022-12-29T04:34:42;2.78;;;1.00;;
42690;SDS011;28306;55.744;37.578;2022-12-29T04:37:08;3.40;;;0.95;;
42690;SDS011;28306;55.744;37.578;2022-12-29T04:39:33;3.97;;;0.85;;
42690;SDS011;28306;55.744;37.578;2022-12-29T04:41:59;2.38;;;1.00;;
42690;SDS011;28306;55.744;37.578;2022-12-29T04:44:25;1.80;;;0.77;;
42690;SDS011;28306;55.744;37.578;2022-12-29T04:46:56;8.93;;;0.98;;
42690;SDS011;28306;55.744;37.578;2022-12-29T04:49:39;1.95;;;0.82;;
42690;SDS011;28306;55.744;37.578;2022-12-29T04:52:23;2.33;;;1.00;;
42690;SDS011;28306;55.744;37.578;2022-12-29T04:54:50;2.40;;;1.00;;
42690;SDS011;28306;55.744;37.578;2022-12-29T04:57:18;2.72;;;0.95;;
42690;SDS011;28306;55.744;37.578;2022-12-29T04:59:49;2.72;;;1.00;;
42690;SDS011;28306;55.744;37.578;2022-12-29T05:02:15;1.80;;;0.80;;
42690;SDS011;28306;55.744;37.578;2022-12-29T05:04:43;1.85;;;0.98;;
42690;SDS011;28306;55.744;37.578;2022-12-29T05:07:09;2.83;;;1.10;;
42690;SDS011;28306;55.744;37.578;2022-12-29T05:09:36;2.00;;;0.88;;
42690;SDS011;28306;55.744;37.578;2022-12-29T05:12:02;4.57;;;0.85;;
42690;SDS011;28306;55.744;37.578;2022-12-29T05:14:30;3.20;;;0.93;;
42690;SDS011;28306;55.744;37.578;2022-12-29T05:16:55;2.30;;;1.00;;
42690;SDS011;28306;55.744;37.578;2022-12-29T05:19:21;3.83;;;0.98;;
42690;SDS011;28306;55.744;37.578;2022-12-29T05:21:47;2.17;;;0.98;;
42690;SDS011;28306;55.744;37.578;2022-12-29T05:24:13;2.78;;;1.00;;
42690;SDS011;28306;55.744;37.578;2022-12-29T05:26:40;2.55;;;1.10;;
42690;SDS011;28306;55.744;37.578;2022-12-29T05:29:12;2.30;;;1.00;;
42690;SDS011;28306;55.744;37.578;2022-12-29T05:31:38;2.17;;;1.10;;
42690;SDS011;28306;55.744;37.578;2022-12-29T05:34:05;4.03;;;1.23;;
42690;SDS011;28306;55.744;37.578;2022-12-29T05:36:31;2.47;;;1.17;;
42690;SDS011;28306;55.744;37.578;2022-12-29T05:38:58;4.95;;;1.30;;
42690;SDS011;28306;55.744;37.578;2022-12-29T05:41:24;2.60;;;1.10;;
42690;SDS011;28306;55.744;37.578;2022-12-29T05:44:10;3.22;;;1.17;;
42690;SDS011;28306;55.744;37.578;2022-12-29T05:46:45;3.22;;;1.13;;
42690;SDS011;28306;55.744;37.578;2022-12-29T05:49:34;2.85;;;1.20;;
42690;SDS011;28306;55.744;37.578;2022-12-29T05:52:08;2.75;;;1.00;;
42690;SDS011;28306;55.744;37.578;2022-12-29T05:54:33;3.83;;;1.13;;
42690;SDS011;28306;55.744;37.578;2022-12-29T05:57:00;3.67;;;1.33;;
42690;SDS011;28306;55.744;37.578;2022-12-29T05:59:27;3.72;;;1.20;;
42690;SDS011;28306;55.744;37.578;2022-12-29T06:01:54;2.80;;;1.05;;
42690;SDS011;28306;55.744;37.578;2022-12-29T06:04:19;3.70;;;1.20;;
42690;SDS011;28306;55.744;37.578;2022-12-29T06:06:46;3.47;;;0.95;;
42690;SDS011;28306;55.744;37.578;2022-12-29T06:09:20;4.32;;;1.38;;
42690;SDS011;28306;55.744;37.578;2022-12-29T06:11:46;3.72;;;1.48;;
42690;SDS011;28306;55.744;37.578;2022-12-29T06:14:11;3.15;;;1.30;;
42690;SDS011;28306;55.744;37.578;2022-12-29T06:16:37;2.45;;;1.00;;
42690;SDS011;28306;55.744;37.578;2022-12-29T06:19:07;2.95;;;0.93;;
42690;SDS011;28306;55.744;37.578;2022-12-29T06:21:33;1.80;;;1.13;;
42690;SDS011;28306;55.744;37.578;2022-12-29T06:24:00;2.85;;;1.20;;
42690;SDS011;28306;55.744;37.578;2022-12-29T06:26:25;2.15;;;1.10;;
42690;SDS011;28306;55.744;37.578;2022-12-29T06:28:51;2.92;;;1.23;;
42690;SDS011;28306;55.744;37.578;2022-12-29T06:31:17;4.20;;;1.80;;
42690;SDS011;28306;55.744;37.578;2022-12-29T06:33:43;4.78;;;1.10;;
42690;SDS011;28306;55.744;37.578;2022-12-29T06:36:09;4.40;;;1.60;;
42690;SDS011;28306;55.744;37.578;2022-12-29T06:38:34;4.15;;;1.58;;
42690;SDS011;28306;55.744;37.578;2022-12-29T06:41:00;3.33;;;1.42;;
42690;SDS011;28306;55.744;37.578;2022-12-29T06:43:38;4.72;;;1.50;;
42690;SDS011;28306;55.744;37.578;2022-12-29T06:46:23;3.38;;;1.88;;
42690;SDS011;28306;55.744;37.578;2022-12-29T06:48:49;3.60;;;1.27;;
42690;SDS011;28306;55.744;37.578;2022-12-29T06:51:15;2.35;;;1.40;;
42690;SDS011;28306;55.744;37.578;2022-12-29T06:53:40;5.25;;;1.50;;
42690;SDS011;28306;55.744;37.578;2022-12-29T06:56:06;3.00;;;1.30;;
42690;SDS011;28306;55.744;37.578;2022-12-29T06:58:32;4.03;;;1.35;;
42690;SDS011;28306;55.744;37.578;2022-12-29T07:00:57;4.47;;;1.50;;
42690;SDS011;28306;55.744;37.578;2022-12-29T07:03:23;4.80;;;1.55;;
42690;SDS011;28306;55.744;37.578;2022-12-29T07:05:49;3.05;;;1.58;;
42690;SDS011;28306;55.744;37.578;2022-12-29T07:08:14;5.55;;;1.50;;
42690;SDS011;28306;55.744;37.578;2022-12-29T07:10:40;3.92;;;1.60;;
42690;SDS011;28306;55.744;37.578;2022-12-29T07:13:06;4.35;;;1.70;;
42690;SDS011;28306;55.744;37.578;2022-12-29T07:15:33;3.65;;;1.48;;
42690;SDS011;28306;55.744;37.578;2022-12-29T07:17:59;3.60;;;1.52;;
42690;SDS011;28306;55.744;37.578;2022-12-29T07:20:24;3.33;;;1.65;;
42690;SDS011;28306;55.744;37.578;2022-12-29T07:22:50;3.47;;;1.45;;
42690;SDS011;28306;55.744;37.578;2022-12-29T07:25:16;3.85;;;1.60;;
42690;SDS011;28306;55.744;37.578;2022-12-29T07:27:41;3.55;;;1.70;;
42690;SDS011;28306;55.744;37.578;2022-12-29T07:30:07;4.45;;;1.60;;
42690;SDS011;28306;55.744;37.578;2022-12-29T07:32:33;5.45;;;1.60;;
42690;SDS011;28306;55.744;37.578;2022-12-29T07:34:59;2.20;;;1.13;;
42690;SDS011;28306;55.744;37.578;2022-12-29T07:37:25;5.18;;;1.52;;
42690;SDS011;28306;55.744;37.578;2022-12-29T07:39:51;2.75;;;1.30;;
42690;SDS011;28306;55.744;37.578;2022-12-29T07:42:16;4.15;;;1.52;;
42690;SDS011;28306;55.744;37.578;2022-12-29T07:44:48;4.85;;;1.60;;
42690;SDS011;28306;55.744;37.578;2022-12-29T07:47:25;4.55;;;1.65;;
42690;SDS011;28306;55.744;37.578;2022-12-29T07:49:51;3.63;;;1.77;;
42690;SDS011;28306;55.744;37.578;2022-12-29T07:52:17;3.58;;;1.50;;
42690;SDS011;28306;55.744;37.578;2022-12-29T07:54:43;3.55;;;1.40;;
42690;SDS011;28306;55.744;37.578;2022-12-29T07:57:08;3.03;;;1.45;;
42690;SDS011;28306;55.744;37.578;2022-12-29T07:59:34;2.08;;;1.20;;
42690;SDS011;28306;55.744;37.578;2022-12-29T08:02:00;3.65;;;1.60;;
42690;SDS011;28306;55.744;37.578;2022-12-29T08:04:26;2.95;;;1.20;;
42690;SDS011;28306;55.744;37.578;2022-12-29T08:06:51;4.40;;;1.30;;
42690;SDS011;28306;55.744;37.578;2022-12-29T08:09:17;3.35;;;1.58;;
42690;SDS011;28306;55.744;37.578;2022-12-29T08:11:43;2.72;;;1.33;;
42690;SDS011;28306;55.744;37.578;2022-12-29T08:14:09;2.55;;;1.30;;
42690;SDS011;28306;55.744;37.578;2022-12-29T08:16:35;4.22;;;1.77;;
42690;SDS011;28306;55.744;37.578;2022-12-29T08:19:01;5.03;;;2.45;;
42690;SDS011;28306;55.744;37.578;2022-12-29T08:21:27;4.50;;;1.85;;
42690;SDS011;28306;55.744;37.578;2022-12-29T08:23:53;4.07;;;1.73;;
42690;SDS011;28306;55.744;37.578;2022-12-29T08:26:19;3.05;;;1.65;;
42690;SDS011;28306;55.744;37.578;2022-12-29T08:28:44;5.65;;;3.45;;
42690;SDS011;28306;55.744;37.578;2022-12-29T08:31:10;6.53;;;2.72;;
42690;SDS011;28306;55.744;37.578;2022-12-29T08:33:36;4.90;;;2.55;;
42690;SDS011;28306;55.744;37.578;2022-12-29T08:36:02;3.25;;;1.88;;
42690;SDS011;28306;55.744;37.578;2022-12-29T08:38:29;4.93;;;1.70;;
42690;SDS011;28306;55.744;37.578;2022-12-29T08:40:56;3.03;;;1.67;;
42690;SDS011;28306;55.744;37.578;2022-12-29T08:43:22;3.88;;;1.60;;
42690;SDS011;28306;55.744;37.578;2022-12-29T08:45:48;4.13;;;2.08;;
42690;SDS011;28306;55.744;37.578;2022-12-29T08:48:13;5.50;;;2.03;;
42690;SDS011;28306;55.744;37.578;2022-12-29T08:50:43;5.53;;;1.90;;
42690;SDS011;28306;55.744;37.578;2022-12-29T08:53:09;4.25;;;2.00;;
42690;SDS011;28306;55.744;37.578;2022-12-29T08:55:35;3.33;;;1.75;;
42690;SDS011;28306;55.744;37.578;2022-12-29T08:58:01;3.45;;;1.80;;
42690;SDS011;28306;55.744;37.578;2022-12-29T09:00:26;4.00;;;2.03;;
42690;SDS011;28306;55.744;37.578;2022-12-29T09:02:52;5.57;;;2.15;;
42690;SDS011;28306;55.744;37.578;2022-12-29T09:05:18;2.95;;;1.80;;
42690;SDS011;28306;55.744;37.578;2022-12-29T09:07:44;3.97;;;1.90;;
42690;SDS011;28306;55.744;37.578;2022-12-29T09:10:09;2.83;;;1.70;;
42690;SDS011;28306;55.744;37.578;2022-12-29T09:12:35;3.67;;;2.20;;
42690;SDS011;28306;55.744;37.578;2022-12-29T09:15:01;9.02;;;3.25;;
42690;SDS011;28306;55.744;37.578;2022-12-29T09:17:26;5.85;;;2.40;;
42690;SDS011;28306;55.744;37.578;2022-12-29T09:20:08;3.38;;;1.83;;
42690;SDS011;28306;55.744;37.578;2022-12-29T09:22:35;4.07;;;1.92;;
42690;SDS011;28306;55.744;37.578;2022-12-29T09:25:01;4.18;;;2.25;;
42690;SDS011;28306;55.744;37.578;2022-12-29T09:27:27;4.75;;;2.00;;
42690;SDS011;28306;55.744;37.578;2022-12-29T09:29:52;4.50;;;1.83;;
42690;SDS011;28306;55.744;37.578;2022-12-29T09:32:18;4.88;;;1.70;;
42690;SDS011;28306;55.744;37.578;2022-12-29T09:34:44;11.60;;;2.28;;
42690;SDS011;28306;55.744;37.578;2022-12-29T09:37:09;4.10;;;2.00;;
42690;SDS011;28306;55.744;37.578;2022-12-29T09:39:35;9.18;;;1.90;;
42690;SDS011;28306;55.744;37.578;2022-12-29T09:42:02;3.72;;;2.00;;
42690;SDS011;28306;55.744;37.578;2022-12-29T09:44:47;4.43;;;2.00;;
42690;SDS011;28306;55.744;37.578;2022-12-29T09:47:21;3.63;;;1.85;;
42690;SDS011;28306;55.744;37.578;2022-12-29T09:49:51;3.03;;;1.90;;
42690;SDS011;28306;55.744;37.578;2022-12-29T09:52:25;3.45;;;1.75;;
42690;SDS011;28306;55.744;37.578;2022-12-29T09:55:05;4.93;;;2.13;;
42690;SDS011;28306;55.744;37.578;2022-12-29T10:02:40;3.22;;;1.52;;
42690;SDS011;28306;55.744;37.578;2022-12-29T10:05:26;3.67;;;1.60;;
42690;SDS011;28306;55.744;37.578;2022-12-29T10:08:10;4.05;;;1.63;;
42690;SDS011;28306;55.744;37.578;2022-12-29T10:10:46;4.65;;;1.85;;
42690;SDS011;28306;55.744;37.578;2022-12-29T10:16:10;3.63;;;1.60;;
42690;SDS011;28306;55.744;37.578;2022-12-29T10:21:13;5.05;;;1.70;;
42690;SDS011;28306;55.744;37.578;2022-12-29T10:23:53;2.80;;;1.70;;
42690;SDS011;28306;55.744;37.578;2022-12-29T10:26:26;3.08;;;1.42;;
42690;SDS011;28306;55.744;37.578;2022-12-29T10:29:02;3.70;;;1.65;;
42690;SDS011;28306;55.744;37.578;2022-12-29T10:31:35;4.45;;;2.10;;
42690;SDS011;28306;55.744;37.578;2022-12-29T10:34:10;5.28;;;1.80;;
42690;SDS011;28306;55.744;37.578;2022-12-29T10:36:47;5.60;;;1.70;;
42690;SDS011;28306;55.744;37.578;2022-12-29T10:39:22;5.75;;;1.73;;
42690;SDS011;28306;55.744;37.578;2022-12-29T10:44:58;3.97;;;1.90;;
42690;SDS011;28306;55.744;37.578;2022-12-29T10:47:28;4.07;;;2.03;;
42690;SDS011;28306;55.744;37.578;2022-12-29T10:49:56;4.70;;;2.00;;
42690;SDS011;28306;55.744;37.578;2022-12-29T10:52:23;3.78;;;1.75;;
42690;SDS011;28306;55.744;37.578;2022-12-29T10:54:55;7.75;;;1.70;;
42690;SDS011;28306;55.744;37.578;2022-12-29T10:57:26;5.82;;;1.83;;
42690;SDS011;28306;55.744;37.578;2022-12-29T10:59:58;5.83;;;1.93;;
42690;SDS011;28306;55.744;37.578;2022-12-29T11:07:21;9.50;;;2.25;;
42690;SDS011;28306;55.744;37.578;2022-12-29T11:09:47;10.10;;;2.13;;
42690;SDS011;28306;55.744;37.578;2022-12-29T11:12:31;10.05;;;2.03;;
42690;SDS011;28306;55.744;37.578;2022-12-29T11:17:48;4.70;;;1.90;;
42690;SDS011;28306;55.744;37.578;2022-12-29T11:23:03;4.88;;;1.95;;
42690;SDS011;28306;55.744;37.578;2022-12-29T11:25:30;3.10;;;1.88;;
42690;SDS011;28306;55.744;37.578;2022-12-29T11:28:12;5.90;;;2.10;;
42690;SDS011;28306;55.744;37.578;2022-12-29T11:30:40;4.05;;;1.60;;
42690;SDS011;28306;55.744;37.578;2022-12-29T11:33:08;3.95;;;1.80;;
42690;SDS011;28306;55.744;37.578;2022-12-29T11:38:05;4.30;;;2.03;;
42690;SDS011;28306;55.744;37.578;2022-12-29T11:40:42;3.63;;;1.95;;
42690;SDS011;28306;55.744;37.578;2022-12-29T11:43:22;2.80;;;1.65;;
42690;SDS011;28306;55.744;37.578;2022-12-29T11:45:55;7.60;;;2.20;;
42690;SDS011;28306;55.744;37.578;2022-12-29T11:48:21;5.65;;;1.98;;
42690;SDS011;28306;55.744;37.578;2022-12-29T11:50:54;2.85;;;1.50;;
42690;SDS011;28306;55.744;37.578;2022-12-29T11:53:26;2.67;;;1.70;;
42690;SDS011;28306;55.744;37.578;2022-12-29T11:55:59;4.32;;;1.90;;
42690;SDS011;28306;55.744;37.578;2022-12-29T11:58:31;4.35;;;1.77;;
42690;SDS011;28306;55.744;37.578;2022-12-29T12:01:02;2.95;;;1.90;;
42690;SDS011;28306;55.744;37.578;2022-12-29T12:03:30;2.75;;;1.50;;
42690;SDS011;28306;55.744;37.578;2022-12-29T12:05:59;2.70;;;1.60;;
42690;SDS011;28306;55.744;37.578;2022-12-29T12:08:37;2.50;;;1.40;;
42690;SDS011;28306;55.744;37.578;2022-12-29T12:11:15;3.10;;;1.80;;
42690;SDS011;28306;55.744;37.578;2022-12-29T12:13:55;2.88;;;1.60;;
42690;SDS011;28306;55.744;37.578;2022-12-29T12:16:37;4.45;;;1.85;;
42690;SDS011;28306;55.744;37.578;2022-12-29T12:21:52;3.33;;;1.88;;
42690;SDS011;28306;55.744;37.578;2022-12-29T12:41:09;2.17;;;1.40;;
42690;SDS011;28306;55.744;37.578;2022-12-29T12:46:38;3.00;;;1.85;;
42690;SDS011;28306;55.744;37.578;2022-12-29T12:52:38;2.67;;;1.20;;
42690;SDS011;28306;55.744;37.578;2022-12-29T12:57:55;3.17;;;1.33;;
42690;SDS011;28306;55.744;37.578;2022-12-29T13:00:25;2.65;;;1.30;;
42690;SDS011;28306;55.744;37.578;2022-12-29T13:05:31;4.60;;;1.50;;
42690;SDS011;28306;55.744;37.578;2022-12-29T13:20:49;3.40;;;1.30;;
42690;SDS011;28306;55.744;37.578;2022-12-29T13:23:22;4.05;;;1.50;;
42690;SDS011;28306;55.744;37.578;2022-12-29T13:26:05;3.92;;;1.70;;
42690;SDS011;28306;55.744;37.578;2022-12-29T13:28:45;2.10;;;0.90;;
42690;SDS011;28306;55.744;37.578;2022-12-29T13:37:18;2.13;;;1.40;;
42690;SDS011;28306;55.744;37.578;2022-12-29T13:39:51;2.05;;;1.10;;
42690;SDS011;28306;55.744;37.578;2022-12-29T13:42:21;2.33;;;1.40;;
42690;SDS011;28306;55.744;37.578;2022-12-29T13:44:57;2.45;;;1.48;;
42690;SDS011;28306;55.744;37.578;2022-12-29T13:47:27;3.50;;;1.58;;
42690;SDS011;28306;55.744;37.578;2022-12-29T13:50:03;2.72;;;1.40;;
42690;SDS011;28306;55.744;37.578;2022-12-29T13:55:48;2.92;;;1.63;;
42690;SDS011;28306;55.744;37.578;2022-12-29T14:00:56;3.97;;;2.22;;
42690;SDS011;28306;55.744;37.578;2022-12-29T14:06:04;2.83;;;1.95;;
42690;SDS011;28306;55.744;37.578;2022-12-29T14:08:31;3.50;;;1.77;;
42690;SDS011;28306;55.744;37.578;2022-12-29T14:11:00;2.97;;;1.40;;
42690;SDS011;28306;55.744;37.578;2022-12-29T14:13:32;3.35;;;1.50;;
42690;SDS011;28306;55.744;37.578;2022-12-29T14:16:04;4.00;;;1.60;;
42690;SDS011;28306;55.744;37.578;2022-12-29T14:18:33;4.07;;;1.85;;
42690;SDS011;28306;55.744;37.578;2022-12-29T14:23:45;5.22;;;2.13;;
42690;SDS011;28306;55.744;37.578;2022-12-29T14:28:53;3.05;;;2.08;;
42690;SDS011;28306;55.744;37.578;2022-12-29T14:36:37;3.72;;;1.85;;
42690;SDS011;28306;55.744;37.578;2022-12-29T14:39:28;5.80;;;1.90;;
42690;SDS011;28306;55.744;37.578;2022-12-29T14:44:55;2.88;;;1.70;;
42690;SDS011;28306;55.744;37.578;2022-12-29T14:47:37;2.55;;;1.75;;
42690;SDS011;28306;55.744;37.578;2022-12-29T14:52:32;3.30;;;1.50;;
42690;SDS011;28306;55.744;37.578;2022-12-29T14:57:41;2.50;;;1.95;;
42690;SDS011;28306;55.744;37.578;2022-12-29T15:02:49;3.70;;;2.05;;
42690;SDS011;28306;55.744;37.578;2022-12-29T15:08:05;3.55;;;2.10;;
42690;SDS011;28306;55.744;37.578;2022-12-29T15:10:40;4.72;;;2.22;;
42690;SDS011;28306;55.744;37.578;2022-12-29T15:13:15;3.45;;;2.00;;
42690;SDS011;28306;55.744;37.578;2022-12-29T15:18:13;3.35;;;2.00;;
42690;SDS011;28306;55.744;37.578;2022-12-29T15:20:39;3.33;;;2.30;;
42690;SDS011;28306;55.744;37.578;2022-12-29T15:23:10;3.45;;;1.88;;
42690;SDS011;28306;55.744;37.578;2022-12-29T15:26:13;4.13;;;2.45;;
42690;SDS011;28306;55.744;37.578;2022-12-29T15:28:42;4.63;;;2.38;;
42690;SDS011;28306;55.744;37.578;2022-12-29T15:31:28;5.32;;;2.25;;
42690;SDS011;28306;55.744;37.578;2022-12-29T15:33:54;3.92;;;2.30;;
42690;SDS011;28306;55.744;37.578;2022-12-29T15:36:27;3.25;;;1.98;;
42690;SDS011;28306;55.744;37.578;2022-12-29T15:38:54;3.45;;;2.20;;
42690;SDS011;28306;55.744;37.578;2022-12-29T15:44:20;3.85;;;2.45;;
42690;SDS011;28306;55.744;37.578;2022-12-29T15:46:51;3.38;;;2.35;;
42690;SDS011;28306;55.744;37.578;2022-12-29T15:49:17;3.42;;;2.40;;
42690;SDS011;28306;55.744;37.578;2022-12-29T15:51:43;4.30;;;2.53;;
42690;SDS011;28306;55.744;37.578;2022-12-29T15:54:19;4.15;;;2.50;;
42690;SDS011;28306;55.744;37.578;2022-12-29T15:56:48;4.07;;;2.28;;
42690;SDS011;28306;55.744;37.578;2022-12-29T15:59:28;3.85;;;2.50;;
42690;SDS011;28306;55.744;37.578;2022-12-29T16:01:56;4.00;;;2.40;;
42690;SDS011;28306;55.744;37.578;2022-12-29T16:04:32;3.75;;;2.22;;
42690;SDS011;28306;55.744;37.578;2022-12-29T16:07:02;4.38;;;2.55;;
42690;SDS011;28306;55.744;37.578;2022-12-29T16:11:59;3.63;;;2.42;;
42690;SDS011;28306;55.744;37.578;2022-12-29T16:16:58;4.78;;;2.90;;
42690;SDS011;28306;55.744;37.578;2022-12-29T16:19:36;5.20;;;3.03;;
42690;SDS011;28306;55.744;37.578;2022-12-29T16:22:10;5.18;;;3.10;;
42690;SDS011;28306;55.744;37.578;2022-12-29T16:24:49;6.50;;;2.55;;
42690;SDS011;28306;55.744;37.578;2022-12-29T16:27:19;4.78;;;2.67;;
42690;SDS011;28306;55.744;37.578;2022-12-29T16:29:49;5.00;;;3.05;;
42690;SDS011;28306;55.744;37.578;2022-12-29T16:32:26;5.65;;;3.08;;
42690;SDS011;28306;55.744;37.578;2022-12-29T16:35:10;3.03;;;2.20;;
42690;SDS011;28306;55.744;37.578;2022-12-29T16:37:38;4.68;;;2.80;;
42690;SDS011;28306;55.744;37.578;2022-12-29T16:47:45;5.75;;;3.05;;
42690;SDS011;28306;55.744;37.578;2022-12-29T16:50:13;5.35;;;2.75;;
42690;SDS011;28306;55.744;37.578;2022-12-29T16:52:50;4.65;;;2.70;;
42690;SDS011;28306;55.744;37.578;2022-12-29T16:55:18;5.93;;;2.95;;
42690;SDS011;28306;55.744;37.578;2022-12-29T16:57:45;6.03;;;3.35;;
42690;SDS011;28306;55.744;37.578;2022-12-29T17:00:18;8.68;;;3.55;;
42690;SDS011;28306;55.744;37.578;2022-12-29T17:02:45;5.68;;;3.38;;
42690;SDS011;28306;55.744;37.578;2022-12-29T17:05:13;7.03;;;3.85;;
42690;SDS011;28306;55.744;37.578;2022-12-29T17:07:39;7.32;;;3.97;;
42690;SDS011;28306;55.744;37.578;2022-12-29T17:10:05;7.18;;;3.95;;
42690;SDS011;28306;55.744;37.578;2022-12-29T17:12:31;5.72;;;3.58;;
42690;SDS011;28306;55.744;37.578;2022-12-29T17:17:38;5.68;;;3.95;;
42690;SDS011;28306;55.744;37.578;2022-12-29T17:22:46;6.07;;;3.78;;
42690;SDS011;28306;55.744;37.578;2022-12-29T17:25:13;7.00;;;4.30;;
42690;SDS011;28306;55.744;37.578;2022-12-29T17:27:42;7.78;;;4.15;;
42690;SDS011;28306;55.744;37.578;2022-12-29T17:30:12;6.95;;;4.20;;
42690;SDS011;28306;55.744;37.578;2022-12-29T17:32:43;7.75;;;4.40;;
42690;SDS011;28306;55.744;37.578;2022-12-29T17:35:14;9.40;;;4.45;;
42690;SDS011;28306;55.744;37.578;2022-12-29T17:37:41;9.13;;;4.85;;
42690;SDS011;28306;55.744;37.578;2022-12-29T17:40:09;7.93;;;4.85;;
42690;SDS011;28306;55.744;37.578;2022-12-29T17:42:44;9.77;;;5.40;;
42690;SDS011;28306;55.744;37.578;2022-12-29T17:45:12;8.40;;;4.75;;
42690;SDS011;28306;55.744;37.578;2022-12-29T17:47:46;8.40;;;5.07;;